sensor_id;sensor_type;location;lat;lon;timestamp;P1;durP1;ratioP1;P2;durP2;ratioP2
52047;SDS011;46904;49.438;8.752;2023-07-29T00:08:17;2.65;;;1.40;;
52047;SDS011;46904;49.438;8.752;2023-07-29T00:10:49;1.35;;;1.10;;
52047;SDS011;46904;49.438;8.752;2023-07-29T00:13:17;1.55;;;1.20;;
52047;SDS011;46904;49.438;8.752;2023-07-29T00:15:45;1.20;;;1.10;;
52047;SDS011;46904;49.438;8.752;2023-07-29T00:18:16;19.75;;;2.97;;
52047;SDS011;46904;49.438;8.752;2023-07-29T00:20:47;1.23;;;1.00;;
52047;SDS011;46904;49.438;8.752;2023-07-29T00:23:33;2.13;;;1.20;;
52047;SDS011;46904;49.438;8.752;2023-07-29T00:26:02;2.90;;;1.02;;
52047;SDS011;46904;49.438;8.752;2023-07-29T00:28:40;1.30;;;1.20;;
52047;SDS011;46904;49.438;8.752;2023-07-29T00:31:08;2.50;;;1.02;;
52047;SDS011;46904;49.438;8.752;2023-07-29T00:33:34;1.92;;;1.08;;
52047;SDS011;46904;49.438;8.752;2023-07-29T00:36:00;0.95;;;0.95;;
52047;SDS011;46904;49.438;8.752;2023-07-29T00:38:25;1.10;;;1.00;;
52047;SDS011;46904;49.438;8.752;2023-07-29T00:40:51;1.83;;;1.02;;
52047;SDS011;46904;49.438;8.752;2023-07-29T00:43:17;1.00;;;0.85;;
52047;SDS011;46904;49.438;8.752;2023-07-29T00:45:43;0.95;;;0.93;;
52047;SDS011;46904;49.438;8.752;2023-07-29T00:48:09;1.50;;;1.20;;
52047;SDS011;46904;49.438;8.752;2023-07-29T00:50:34;1.60;;;1.17;;
52047;SDS011;46904;49.438;8.752;2023-07-29T00:53:00;1.15;;;1.05;;
52047;SDS011;46904;49.438;8.752;2023-07-29T00:55:26;1.20;;;1.10;;
52047;SDS011;46904;49.438;8.752;2023-07-29T00:57:51;3.85;;;1.20;;
52047;SDS011;46904;49.438;8.752;2023-07-29T01:16:23;0.85;;;0.85;;
52047;SDS011;46904;49.438;8.752;2023-07-29T01:21:21;2.85;;;1.08;;
52047;SDS011;46904;49.438;8.752;2023-07-29T01:23:50;0.77;;;0.77;;
52047;SDS011;46904;49.438;8.752;2023-07-29T01:26:20;1.27;;;1.10;;
52047;SDS011;46904;49.438;8.752;2023-07-29T01:28:46;1.85;;;0.98;;
52047;SDS011;46904;49.438;8.752;2023-07-29T01:33:59;1.20;;;1.10;;
52047;SDS011;46904;49.438;8.752;2023-07-29T01:36:40;1.83;;;0.95;;
52047;SDS011;46904;49.438;8.752;2023-07-29T01:39:10;0.73;;;0.73;;
52047;SDS011;46904;49.438;8.752;2023-07-29T01:41:36;2.80;;;0.88;;
52047;SDS011;46904;49.438;8.752;2023-07-29T01:44:10;2.40;;;0.93;;
52047;SDS011;46904;49.438;8.752;2023-07-29T01:46:38;1.08;;;0.98;;
52047;SDS011;46904;49.438;8.752;2023-07-29T01:49:12;0.82;;;0.82;;
52047;SDS011;46904;49.438;8.752;2023-07-29T01:51:38;2.10;;;0.90;;
52047;SDS011;46904;49.438;8.752;2023-07-29T01:54:03;1.08;;;0.98;;
52047;SDS011;46904;49.438;8.752;2023-07-29T01:56:29;1.05;;;0.95;;
52047;SDS011;46904;49.438;8.752;2023-07-29T01:58:55;1.40;;;0.90;;
52047;SDS011;46904;49.438;8.752;2023-07-29T02:01:27;1.40;;;0.80;;
52047;SDS011;46904;49.438;8.752;2023-07-29T02:03:53;1.13;;;1.00;;
52047;SDS011;46904;49.438;8.752;2023-07-29T02:06:19;4.15;;;1.88;;
52047;SDS011;46904;49.438;8.752;2023-07-29T02:08:44;1.50;;;1.13;;
52047;SDS011;46904;49.438;8.752;2023-07-29T02:11:10;2.67;;;1.20;;
52047;SDS011;46904;49.438;8.752;2023-07-29T02:13:35;2.33;;;1.10;;
52047;SDS011;46904;49.438;8.752;2023-07-29T02:16:01;2.28;;;0.98;;
52047;SDS011;46904;49.438;8.752;2023-07-29T02:18:26;1.60;;;1.00;;
52047;SDS011;46904;49.438;8.752;2023-07-29T02:20:52;2.80;;;0.90;;
52047;SDS011;46904;49.438;8.752;2023-07-29T02:23:18;2.65;;;1.98;;
52047;SDS011;46904;49.438;8.752;2023-07-29T02:25:43;1.50;;;1.00;;
52047;SDS011;46904;49.438;8.752;2023-07-29T02:28:09;3.70;;;0.80;;
52047;SDS011;46904;49.438;8.752;2023-07-29T02:30:34;3.17;;;1.73;;
52047;SDS011;46904;49.438;8.752;2023-07-29T02:33:00;2.05;;;1.00;;
52047;SDS011;46904;49.438;8.752;2023-07-29T02:35:25;2.80;;;1.40;;
52047;SDS011;46904;49.438;8.752;2023-07-29T02:37:51;3.50;;;1.95;;
52047;SDS011;46904;49.438;8.752;2023-07-29T02:40:16;2.35;;;1.65;;
52047;SDS011;46904;49.438;8.752;2023-07-29T02:42:42;1.50;;;1.25;;
52047;SDS011;46904;49.438;8.752;2023-07-29T02:45:08;2.45;;;1.17;;
52047;SDS011;46904;49.438;8.752;2023-07-29T02:47:33;1.20;;;1.10;;
52047;SDS011;46904;49.438;8.752;2023-07-29T02:49:59;0.95;;;0.90;;
52047;SDS011;46904;49.438;8.752;2023-07-29T02:52:24;1.35;;;1.20;;
52047;SDS011;46904;49.438;8.752;2023-07-29T02:54:50;1.13;;;1.02;;
52047;SDS011;46904;49.438;8.752;2023-07-29T02:57:15;1.30;;;1.17;;
52047;SDS011;46904;49.438;8.752;2023-07-29T02:59:41;2.60;;;1.20;;
52047;SDS011;46904;49.438;8.752;2023-07-29T03:02:07;2.35;;;1.10;;
52047;SDS011;46904;49.438;8.752;2023-07-29T03:04:32;1.80;;;1.13;;
52047;SDS011;46904;49.438;8.752;2023-07-29T03:06:58;2.13;;;1.15;;
52047;SDS011;46904;49.438;8.752;2023-07-29T03:09:23;1.45;;;1.00;;
52047;SDS011;46904;49.438;8.752;2023-07-29T03:11:49;1.40;;;1.00;;
52047;SDS011;46904;49.438;8.752;2023-07-29T03:14:14;1.60;;;1.08;;
52047;SDS011;46904;49.438;8.752;2023-07-29T03:16:40;1.10;;;1.00;;
52047;SDS011;46904;49.438;8.752;2023-07-29T03:19:05;1.15;;;1.05;;
52047;SDS011;46904;49.438;8.752;2023-07-29T03:21:31;5.15;;;1.10;;
52047;SDS011;46904;49.438;8.752;2023-07-29T03:23:57;1.38;;;1.13;;
52047;SDS011;46904;49.438;8.752;2023-07-29T03:26:22;0.90;;;0.90;;
52047;SDS011;46904;49.438;8.752;2023-07-29T03:28:48;1.50;;;0.80;;
52047;SDS011;46904;49.438;8.752;2023-07-29T03:31:13;2.33;;;1.10;;
52047;SDS011;46904;49.438;8.752;2023-07-29T03:33:39;1.10;;;1.00;;
52047;SDS011;46904;49.438;8.752;2023-07-29T03:36:04;0.80;;;0.80;;
52047;SDS011;46904;49.438;8.752;2023-07-29T03:38:30;2.70;;;1.00;;
52047;SDS011;46904;49.438;8.752;2023-07-29T03:40:56;1.30;;;1.20;;
52047;SDS011;46904;49.438;8.752;2023-07-29T03:43:21;2.88;;;1.10;;
52047;SDS011;46904;49.438;8.752;2023-07-29T03:45:47;2.92;;;1.33;;
52047;SDS011;46904;49.438;8.752;2023-07-29T03:48:12;1.00;;;0.90;;
52047;SDS011;46904;49.438;8.752;2023-07-29T03:50:38;0.80;;;0.80;;
52047;SDS011;46904;49.438;8.752;2023-07-29T03:53:03;1.05;;;0.95;;
52047;SDS011;46904;49.438;8.752;2023-07-29T03:55:29;1.23;;;1.13;;
52047;SDS011;46904;49.438;8.752;2023-07-29T03:57:56;1.10;;;1.00;;
52047;SDS011;46904;49.438;8.752;2023-07-29T04:00:21;1.10;;;0.98;;
52047;SDS011;46904;49.438;8.752;2023-07-29T04:02:47;1.17;;;0.80;;
52047;SDS011;46904;49.438;8.752;2023-07-29T04:05:12;1.10;;;0.90;;
52047;SDS011;46904;49.438;8.752;2023-07-29T04:07:38;2.28;;;1.17;;
52047;SDS011;46904;49.438;8.752;2023-07-29T04:10:04;2.40;;;1.10;;
52047;SDS011;46904;49.438;8.752;2023-07-29T04:12:30;2.00;;;1.00;;
52047;SDS011;46904;49.438;8.752;2023-07-29T04:14:55;1.85;;;1.00;;
52047;SDS011;46904;49.438;8.752;2023-07-29T04:17:21;1.52;;;1.00;;
52047;SDS011;46904;49.438;8.752;2023-07-29T04:19:47;2.05;;;1.08;;
52047;SDS011;46904;49.438;8.752;2023-07-29T04:22:12;3.63;;;1.00;;
52047;SDS011;46904;49.438;8.752;2023-07-29T04:24:38;4.43;;;1.42;;
52047;SDS011;46904;49.438;8.752;2023-07-29T04:27:03;1.95;;;1.30;;
52047;SDS011;46904;49.438;8.752;2023-07-29T04:29:29;1.40;;;1.08;;
52047;SDS011;46904;49.438;8.752;2023-07-29T04:31:57;0.82;;;0.82;;
52047;SDS011;46904;49.438;8.752;2023-07-29T04:34:25;1.05;;;0.85;;
52047;SDS011;46904;49.438;8.752;2023-07-29T04:36:51;2.70;;;0.95;;
52047;SDS011;46904;49.438;8.752;2023-07-29T04:39:16;1.50;;;1.00;;
52047;SDS011;46904;49.438;8.752;2023-07-29T04:41:42;1.52;;;1.00;;
52047;SDS011;46904;49.438;8.752;2023-07-29T04:44:08;2.75;;;1.10;;
52047;SDS011;46904;49.438;8.752;2023-07-29T04:46:50;1.23;;;0.85;;
52047;SDS011;46904;49.438;8.752;2023-07-29T04:54:50;1.50;;;1.30;;
52047;SDS011;46904;49.438;8.752;2023-07-29T04:57:16;1.83;;;1.20;;
52047;SDS011;46904;49.438;8.752;2023-07-29T04:59:41;0.98;;;0.93;;
52047;SDS011;46904;49.438;8.752;2023-07-29T05:02:07;1.45;;;1.00;;
52047;SDS011;46904;49.438;8.752;2023-07-29T05:04:32;1.35;;;1.20;;
52047;SDS011;46904;49.438;8.752;2023-07-29T05:06:58;1.38;;;0.88;;
52047;SDS011;46904;49.438;8.752;2023-07-29T05:09:23;1.25;;;1.15;;
52047;SDS011;46904;49.438;8.752;2023-07-29T05:11:49;4.07;;;1.13;;
52047;SDS011;46904;49.438;8.752;2023-07-29T05:14:15;0.85;;;0.85;;
52047;SDS011;46904;49.438;8.752;2023-07-29T05:16:41;1.80;;;1.02;;
52047;SDS011;46904;49.438;8.752;2023-07-29T05:19:07;2.15;;;1.10;;
52047;SDS011;46904;49.438;8.752;2023-07-29T05:21:32;1.30;;;1.02;;
52047;SDS011;46904;49.438;8.752;2023-07-29T05:23:58;1.40;;;1.02;;
52047;SDS011;46904;49.438;8.752;2023-07-29T05:26:24;1.58;;;1.10;;
52047;SDS011;46904;49.438;8.752;2023-07-29T05:28:49;2.33;;;1.20;;
52047;SDS011;46904;49.438;8.752;2023-07-29T05:31:15;3.92;;;1.20;;
52047;SDS011;46904;49.438;8.752;2023-07-29T05:33:41;1.27;;;1.00;;
52047;SDS011;46904;49.438;8.752;2023-07-29T05:39:30;1.55;;;1.20;;
52047;SDS011;46904;49.438;8.752;2023-07-29T05:44:51;3.05;;;1.30;;
52047;SDS011;46904;49.438;8.752;2023-07-29T05:47:19;2.53;;;1.13;;
52047;SDS011;46904;49.438;8.752;2023-07-29T05:49:44;1.52;;;1.13;;
52047;SDS011;46904;49.438;8.752;2023-07-29T05:52:10;1.38;;;0.75;;
52047;SDS011;46904;49.438;8.752;2023-07-29T05:54:54;1.02;;;0.70;;
52047;SDS011;46904;49.438;8.752;2023-07-29T05:57:20;0.93;;;0.50;;
52047;SDS011;46904;49.438;8.752;2023-07-29T05:59:46;0.55;;;0.55;;
52047;SDS011;46904;49.438;8.752;2023-07-29T06:02:32;1.02;;;0.77;;
52047;SDS011;46904;49.438;8.752;2023-07-29T06:04:59;0.65;;;0.65;;
52047;SDS011;46904;49.438;8.752;2023-07-29T06:07:24;0.60;;;0.60;;
52047;SDS011;46904;49.438;8.752;2023-07-29T06:09:50;0.77;;;0.60;;
52047;SDS011;46904;49.438;8.752;2023-07-29T06:12:15;1.85;;;0.80;;
52047;SDS011;46904;49.438;8.752;2023-07-29T06:14:41;0.60;;;0.60;;
52047;SDS011;46904;49.438;8.752;2023-07-29T06:17:07;0.70;;;0.70;;
52047;SDS011;46904;49.438;8.752;2023-07-29T06:19:32;1.23;;;0.90;;
52047;SDS011;46904;49.438;8.752;2023-07-29T06:21:58;0.85;;;0.65;;
52047;SDS011;46904;49.438;8.752;2023-07-29T06:24:23;0.82;;;0.82;;
52047;SDS011;46904;49.438;8.752;2023-07-29T06:26:49;1.25;;;1.15;;
52047;SDS011;46904;49.438;8.752;2023-07-29T06:29:15;1.42;;;1.23;;
52047;SDS011;46904;49.438;8.752;2023-07-29T06:31:41;1.80;;;1.50;;
52047;SDS011;46904;49.438;8.752;2023-07-29T06:34:06;1.85;;;1.58;;
52047;SDS011;46904;49.438;8.752;2023-07-29T06:36:32;1.83;;;1.67;;
52047;SDS011;46904;49.438;8.752;2023-07-29T06:38:58;2.38;;;1.67;;
52047;SDS011;46904;49.438;8.752;2023-07-29T06:41:23;1.75;;;1.65;;
52047;SDS011;46904;49.438;8.752;2023-07-29T06:43:49;1.73;;;1.63;;
52047;SDS011;46904;49.438;8.752;2023-07-29T06:46:14;2.10;;;1.90;;
52047;SDS011;46904;49.438;8.752;2023-07-29T06:48:40;1.60;;;1.50;;
52047;SDS011;46904;49.438;8.752;2023-07-29T06:51:06;3.15;;;1.48;;
52047;SDS011;46904;49.438;8.752;2023-07-29T06:53:31;1.92;;;1.40;;
52047;SDS011;46904;49.438;8.752;2023-07-29T06:55:57;1.80;;;1.60;;
52047;SDS011;46904;49.438;8.752;2023-07-29T06:58:22;2.45;;;1.50;;
52047;SDS011;46904;49.438;8.752;2023-07-29T07:00:51;2.60;;;1.40;;
52047;SDS011;46904;49.438;8.752;2023-07-29T07:03:26;3.10;;;1.42;;
52047;SDS011;46904;49.438;8.752;2023-07-29T07:05:52;1.45;;;1.35;;
52047;SDS011;46904;49.438;8.752;2023-07-29T07:08:17;2.33;;;1.45;;
52047;SDS011;46904;49.438;8.752;2023-07-29T07:10:43;1.50;;;1.40;;
52047;SDS011;46904;49.438;8.752;2023-07-29T07:13:08;3.05;;;1.60;;
52047;SDS011;46904;49.438;8.752;2023-07-29T07:15:37;1.75;;;1.65;;
52047;SDS011;46904;49.438;8.752;2023-07-29T07:18:03;1.80;;;1.45;;
52047;SDS011;46904;49.438;8.752;2023-07-29T07:20:31;1.93;;;1.77;;
52047;SDS011;46904;49.438;8.752;2023-07-29T07:22:57;1.60;;;1.50;;
52047;SDS011;46904;49.438;8.752;2023-07-29T07:25:23;2.13;;;1.75;;
52047;SDS011;46904;49.438;8.752;2023-07-29T07:27:52;1.60;;;1.40;;
52047;SDS011;46904;49.438;8.752;2023-07-29T07:30:20;1.77;;;1.65;;
52047;SDS011;46904;49.438;8.752;2023-07-29T07:32:46;3.00;;;1.67;;
52047;SDS011;46904;49.438;8.752;2023-07-29T07:35:11;2.63;;;1.80;;
52047;SDS011;46904;49.438;8.752;2023-07-29T07:37:37;2.50;;;1.98;;
52047;SDS011;46904;49.438;8.752;2023-07-29T07:40:03;4.45;;;1.55;;
52047;SDS011;46904;49.438;8.752;2023-07-29T07:42:35;4.05;;;1.90;;
52047;SDS011;46904;49.438;8.752;2023-07-29T07:45:10;2.95;;;2.00;;
52047;SDS011;46904;49.438;8.752;2023-07-29T07:47:36;1.92;;;1.80;;
52047;SDS011;46904;49.438;8.752;2023-07-29T07:50:02;2.70;;;2.03;;
52047;SDS011;46904;49.438;8.752;2023-07-29T07:52:27;2.85;;;1.95;;
52047;SDS011;46904;49.438;8.752;2023-07-29T07:54:53;1.90;;;1.70;;
52047;SDS011;46904;49.438;8.752;2023-07-29T07:57:20;1.83;;;1.55;;
52047;SDS011;46904;49.438;8.752;2023-07-29T07:59:45;2.20;;;1.73;;
52047;SDS011;46904;49.438;8.752;2023-07-29T08:02:11;2.63;;;1.73;;
52047;SDS011;46904;49.438;8.752;2023-07-29T08:04:37;2.53;;;2.30;;
52047;SDS011;46904;49.438;8.752;2023-07-29T08:07:02;1.70;;;1.60;;
52047;SDS011;46904;49.438;8.752;2023-07-29T08:09:28;2.13;;;1.73;;
52047;SDS011;46904;49.438;8.752;2023-07-29T08:11:53;1.95;;;1.77;;
52047;SDS011;46904;49.438;8.752;2023-07-29T08:14:19;1.75;;;1.65;;
52047;SDS011;46904;49.438;8.752;2023-07-29T08:16:44;2.13;;;1.92;;
52047;SDS011;46904;49.438;8.752;2023-07-29T08:20:02;2.17;;;1.85;;
52047;SDS011;46904;49.438;8.752;2023-07-29T08:22:27;2.17;;;1.58;;
52047;SDS011;46904;49.438;8.752;2023-07-29T08:24:53;2.05;;;1.80;;
52047;SDS011;46904;49.438;8.752;2023-07-29T08:27:18;2.53;;;1.98;;
52047;SDS011;46904;49.438;8.752;2023-07-29T08:29:44;2.72;;;1.60;;
52047;SDS011;46904;49.438;8.752;2023-07-29T08:32:10;1.77;;;1.52;;
52047;SDS011;46904;49.438;8.752;2023-07-29T08:34:35;2.03;;;1.50;;
52047;SDS011;46904;49.438;8.752;2023-07-29T08:37:04;1.90;;;1.70;;
52047;SDS011;46904;49.438;8.752;2023-07-29T08:39:30;3.60;;;1.90;;
52047;SDS011;46904;49.438;8.752;2023-07-29T08:42:03;1.90;;;1.80;;
52047;SDS011;46904;49.438;8.752;2023-07-29T08:44:54;2.20;;;2.00;;
52047;SDS011;46904;49.438;8.752;2023-07-29T08:47:24;1.60;;;1.48;;
52047;SDS011;46904;49.438;8.752;2023-07-29T08:50:01;2.20;;;2.10;;
52047;SDS011;46904;49.438;8.752;2023-07-29T08:52:29;11.85;;;2.22;;
52047;SDS011;46904;49.438;8.752;2023-07-29T08:55:10;2.03;;;1.85;;
52047;SDS011;46904;49.438;8.752;2023-07-29T08:57:38;2.10;;;1.90;;
52047;SDS011;46904;49.438;8.752;2023-07-29T09:00:04;2.08;;;1.67;;
52047;SDS011;46904;49.438;8.752;2023-07-29T09:02:30;2.72;;;1.77;;
52047;SDS011;46904;49.438;8.752;2023-07-29T09:04:58;1.80;;;1.70;;
52047;SDS011;46904;49.438;8.752;2023-07-29T09:07:24;1.85;;;1.70;;
52047;SDS011;46904;49.438;8.752;2023-07-29T09:09:53;1.80;;;1.67;;
52047;SDS011;46904;49.438;8.752;2023-07-29T09:12:37;1.60;;;1.50;;
52047;SDS011;46904;49.438;8.752;2023-07-29T09:15:02;1.85;;;1.75;;
52047;SDS011;46904;49.438;8.752;2023-07-29T09:17:31;3.33;;;1.58;;
52047;SDS011;46904;49.438;8.752;2023-07-29T09:19:56;1.70;;;1.60;;
52047;SDS011;46904;49.438;8.752;2023-07-29T09:22:22;1.90;;;1.77;;
52047;SDS011;46904;49.438;8.752;2023-07-29T09:24:47;2.60;;;1.63;;
52047;SDS011;46904;49.438;8.752;2023-07-29T09:27:26;1.90;;;1.52;;
52047;SDS011;46904;49.438;8.752;2023-07-29T09:29:52;2.88;;;1.80;;
52047;SDS011;46904;49.438;8.752;2023-07-29T09:32:21;4.53;;;1.90;;
52047;SDS011;46904;49.438;8.752;2023-07-29T09:34:46;1.90;;;1.80;;
52047;SDS011;46904;49.438;8.752;2023-07-29T09:37:16;2.92;;;2.20;;
52047;SDS011;46904;49.438;8.752;2023-07-29T09:39:43;3.05;;;2.00;;
52047;SDS011;46904;49.438;8.752;2023-07-29T09:42:19;3.08;;;1.70;;
52047;SDS011;46904;49.438;8.752;2023-07-29T09:44:44;2.30;;;1.90;;
52047;SDS011;46904;49.438;8.752;2023-07-29T09:47:18;2.72;;;2.10;;
52047;SDS011;46904;49.438;8.752;2023-07-29T09:49:44;1.77;;;1.67;;
52047;SDS011;46904;49.438;8.752;2023-07-29T09:52:09;2.75;;;1.60;;
52047;SDS011;46904;49.438;8.752;2023-07-29T09:54:36;1.80;;;1.70;;
52047;SDS011;46904;49.438;8.752;2023-07-29T09:57:02;1.80;;;1.70;;
52047;SDS011;46904;49.438;8.752;2023-07-29T10:02:39;2.00;;;1.85;;
52047;SDS011;46904;49.438;8.752;2023-07-29T10:05:08;2.95;;;1.70;;
52047;SDS011;46904;49.438;8.752;2023-07-29T10:10:45;1.80;;;1.70;;
52047;SDS011;46904;49.438;8.752;2023-07-29T10:13:34;1.83;;;1.70;;
52047;SDS011;46904;49.438;8.752;2023-07-29T10:16:00;3.33;;;1.98;;
52047;SDS011;46904;49.438;8.752;2023-07-29T10:18:26;1.88;;;1.70;;
52047;SDS011;46904;49.438;8.752;2023-07-29T10:20:58;2.03;;;1.80;;
52047;SDS011;46904;49.438;8.752;2023-07-29T10:23:24;1.95;;;1.60;;
52047;SDS011;46904;49.438;8.752;2023-07-29T10:25:57;1.65;;;1.55;;
52047;SDS011;46904;49.438;8.752;2023-07-29T10:28:40;2.13;;;1.80;;
52047;SDS011;46904;49.438;8.752;2023-07-29T10:31:06;1.60;;;1.50;;
52047;SDS011;46904;49.438;8.752;2023-07-29T10:39:59;1.75;;;1.65;;
52047;SDS011;46904;49.438;8.752;2023-07-29T10:42:24;1.63;;;1.52;;
52047;SDS011;46904;49.438;8.752;2023-07-29T10:44:51;2.78;;;1.90;;
52047;SDS011;46904;49.438;8.752;2023-07-29T10:47:17;2.25;;;1.80;;
52047;SDS011;46904;49.438;8.752;2023-07-29T10:49:47;1.67;;;1.58;;
52047;SDS011;46904;49.438;8.752;2023-07-29T10:52:27;1.95;;;1.83;;
52047;SDS011;46904;49.438;8.752;2023-07-29T10:54:52;1.65;;;1.55;;
52047;SDS011;46904;49.438;8.752;2023-07-29T10:57:32;1.70;;;1.60;;
52047;SDS011;46904;49.438;8.752;2023-07-29T11:02:44;2.00;;;1.80;;
52047;SDS011;46904;49.438;8.752;2023-07-29T11:05:17;2.20;;;2.00;;
52047;SDS011;46904;49.438;8.752;2023-07-29T11:07:43;2.45;;;2.08;;
52047;SDS011;46904;49.438;8.752;2023-07-29T11:10:21;3.28;;;1.70;;
52047;SDS011;46904;49.438;8.752;2023-07-29T11:12:50;1.80;;;1.70;;
52047;SDS011;46904;49.438;8.752;2023-07-29T11:20:14;1.77;;;1.67;;
52047;SDS011;46904;49.438;8.752;2023-07-29T11:22:43;1.83;;;1.73;;
52047;SDS011;46904;49.438;8.752;2023-07-29T11:25:15;1.73;;;1.63;;
52047;SDS011;46904;49.438;8.752;2023-07-29T11:27:41;1.65;;;1.55;;
52047;SDS011;46904;49.438;8.752;2023-07-29T11:30:11;2.42;;;1.52;;
52047;SDS011;46904;49.438;8.752;2023-07-29T11:35:03;1.50;;;1.40;;
52047;SDS011;46904;49.438;8.752;2023-07-29T11:37:29;1.52;;;1.40;;
52047;SDS011;46904;49.438;8.752;2023-07-29T11:39:55;1.70;;;1.60;;
52047;SDS011;46904;49.438;8.752;2023-07-29T11:42:21;2.13;;;1.92;;
52047;SDS011;46904;49.438;8.752;2023-07-29T11:44:49;1.95;;;1.73;;
52047;SDS011;46904;49.438;8.752;2023-07-29T11:47:15;1.70;;;1.60;;
52047;SDS011;46904;49.438;8.752;2023-07-29T11:49:40;5.07;;;2.10;;
52047;SDS011;46904;49.438;8.752;2023-07-29T11:52:07;1.65;;;1.55;;
52047;SDS011;46904;49.438;8.752;2023-07-29T11:54:33;1.58;;;1.48;;
52047;SDS011;46904;49.438;8.752;2023-07-29T11:56:59;1.85;;;1.65;;
52047;SDS011;46904;49.438;8.752;2023-07-29T11:59:25;1.50;;;1.40;;
52047;SDS011;46904;49.438;8.752;2023-07-29T12:01:52;1.65;;;1.52;;
52047;SDS011;46904;49.438;8.752;2023-07-29T12:04:21;1.50;;;1.40;;
52047;SDS011;46904;49.438;8.752;2023-07-29T12:06:47;1.40;;;1.30;;
52047;SDS011;46904;49.438;8.752;2023-07-29T12:09:13;2.55;;;1.20;;
52047;SDS011;46904;49.438;8.752;2023-07-29T12:11:39;1.35;;;1.25;;
52047;SDS011;46904;49.438;8.752;2023-07-29T12:14:08;2.47;;;1.40;;
52047;SDS011;46904;49.438;8.752;2023-07-29T12:16:41;1.48;;;1.30;;
52047;SDS011;46904;49.438;8.752;2023-07-29T12:19:07;1.27;;;1.17;;
52047;SDS011;46904;49.438;8.752;2023-07-29T12:21:33;1.38;;;1.17;;
52047;SDS011;46904;49.438;8.752;2023-07-29T12:23:59;2.28;;;1.40;;
52047;SDS011;46904;49.438;8.752;2023-07-29T12:26:28;1.60;;;1.50;;
52047;SDS011;46904;49.438;8.752;2023-07-29T12:28:53;2.05;;;1.40;;
52047;SDS011;46904;49.438;8.752;2023-07-29T12:31:19;1.60;;;1.50;;
52047;SDS011;46904;49.438;8.752;2023-07-29T12:33:48;1.60;;;1.50;;
52047;SDS011;46904;49.438;8.752;2023-07-29T12:36:13;1.50;;;1.33;;
52047;SDS011;46904;49.438;8.752;2023-07-29T12:38:39;1.77;;;1.67;;
52047;SDS011;46904;49.438;8.752;2023-07-29T12:41:07;1.50;;;1.40;;
52047;SDS011;46904;49.438;8.752;2023-07-29T12:43:33;1.63;;;1.52;;
52047;SDS011;46904;49.438;8.752;2023-07-29T12:46:02;1.60;;;1.50;;
52047;SDS011;46904;49.438;8.752;2023-07-29T12:48:29;1.48;;;1.30;;
52047;SDS011;46904;49.438;8.752;2023-07-29T12:50:58;1.70;;;1.60;;
52047;SDS011;46904;49.438;8.752;2023-07-29T12:53:23;1.52;;;1.42;;
52047;SDS011;46904;49.438;8.752;2023-07-29T12:56:00;1.48;;;1.38;;
52047;SDS011;46904;49.438;8.752;2023-07-29T12:58:28;1.50;;;1.40;;
52047;SDS011;46904;49.438;8.752;2023-07-29T13:00:53;1.50;;;1.30;;
52047;SDS011;46904;49.438;8.752;2023-07-29T13:03:19;1.42;;;1.33;;
52047;SDS011;46904;49.438;8.752;2023-07-29T13:05:45;1.60;;;1.50;;
52047;SDS011;46904;49.438;8.752;2023-07-29T13:08:11;1.42;;;1.33;;
52047;SDS011;46904;49.438;8.752;2023-07-29T13:10:36;1.35;;;1.25;;
52047;SDS011;46904;49.438;8.752;2023-07-29T13:13:02;1.35;;;1.25;;
52047;SDS011;46904;49.438;8.752;2023-07-29T13:15:28;1.60;;;1.50;;
52047;SDS011;46904;49.438;8.752;2023-07-29T13:18:02;1.50;;;1.40;;
52047;SDS011;46904;49.438;8.752;2023-07-29T13:20:37;1.85;;;1.75;;
52047;SDS011;46904;49.438;8.752;2023-07-29T13:23:06;4.15;;;2.13;;
52047;SDS011;46904;49.438;8.752;2023-07-29T13:25:40;1.73;;;1.50;;
52047;SDS011;46904;49.438;8.752;2023-07-29T13:28:27;1.40;;;1.30;;
52047;SDS011;46904;49.438;8.752;2023-07-29T13:30:54;1.35;;;1.25;;
52047;SDS011;46904;49.438;8.752;2023-07-29T13:33:20;2.65;;;1.50;;
52047;SDS011;46904;49.438;8.752;2023-07-29T13:35:49;1.60;;;1.33;;
52047;SDS011;46904;49.438;8.752;2023-07-29T13:38:15;2.03;;;1.30;;
52047;SDS011;46904;49.438;8.752;2023-07-29T13:40:50;2.15;;;1.40;;
52047;SDS011;46904;49.438;8.752;2023-07-29T13:43:36;1.35;;;1.20;;
52047;SDS011;46904;49.438;8.752;2023-07-29T13:46:01;1.88;;;1.48;;
52047;SDS011;46904;49.438;8.752;2023-07-29T14:02:17;1.30;;;1.20;;
52047;SDS011;46904;49.438;8.752;2023-07-29T14:07:49;1.20;;;1.10;;
52047;SDS011;46904;49.438;8.752;2023-07-29T14:16:19;1.30;;;1.20;;
52047;SDS011;46904;49.438;8.752;2023-07-29T14:43:34;1.67;;;1.50;;
52047;SDS011;46904;49.438;8.752;2023-07-29T14:46:13;1.35;;;1.25;;
52047;SDS011;46904;49.438;8.752;2023-07-29T14:49:00;1.67;;;1.20;;
52047;SDS011;46904;49.438;8.752;2023-07-29T15:20:38;5.28;;;4.20;;
52047;SDS011;46904;49.438;8.752;2023-07-29T15:23:04;3.97;;;3.30;;
52047;SDS011;46904;49.438;8.752;2023-07-29T15:25:36;2.35;;;1.95;;
52047;SDS011;46904;49.438;8.752;2023-07-29T15:28:05;2.45;;;1.50;;
52047;SDS011;46904;49.438;8.752;2023-07-29T15:36:26;1.50;;;1.40;;
52047;SDS011;46904;49.438;8.752;2023-07-29T15:39:07;3.30;;;1.20;;
52047;SDS011;46904;49.438;8.752;2023-07-29T15:47:28;1.42;;;1.15;;
52047;SDS011;46904;49.438;8.752;2023-07-29T15:49:56;1.55;;;1.27;;
52047;SDS011;46904;49.438;8.752;2023-07-29T15:52:22;1.58;;;1.48;;
52047;SDS011;46904;49.438;8.752;2023-07-29T16:05:55;1.50;;;1.40;;
52047;SDS011;46904;49.438;8.752;2023-07-29T16:13:57;3.42;;;1.33;;
52047;SDS011;46904;49.438;8.752;2023-07-29T16:16:26;1.75;;;1.30;;
52047;SDS011;46904;49.438;8.752;2023-07-29T16:21:51;2.67;;;1.20;;
52047;SDS011;46904;49.438;8.752;2023-07-29T16:24:23;3.90;;;3.00;;
52047;SDS011;46904;49.438;8.752;2023-07-29T16:26:49;5.80;;;3.10;;
52047;SDS011;46904;49.438;8.752;2023-07-29T16:29:33;6.32;;;3.42;;
52047;SDS011;46904;49.438;8.752;2023-07-29T16:32:17;5.22;;;2.50;;
52047;SDS011;46904;49.438;8.752;2023-07-29T16:59:54;2.45;;;1.45;;
52047;SDS011;46904;49.438;8.752;2023-07-29T17:02:23;2.35;;;1.40;;
52047;SDS011;46904;49.438;8.752;2023-07-29T17:04:54;1.80;;;1.50;;
52047;SDS011;46904;49.438;8.752;2023-07-29T17:07:20;15.80;;;2.10;;
52047;SDS011;46904;49.438;8.752;2023-07-29T17:09:48;1.55;;;1.45;;
52047;SDS011;46904;49.438;8.752;2023-07-29T17:12:23;2.53;;;1.95;;
52047;SDS011;46904;49.438;8.752;2023-07-29T17:14:52;1.73;;;1.50;;
52047;SDS011;46904;49.438;8.752;2023-07-29T17:19:55;3.00;;;1.73;;
52047;SDS011;46904;49.438;8.752;2023-07-29T17:22:27;1.88;;;1.73;;
52047;SDS011;46904;49.438;8.752;2023-07-29T17:25:00;1.83;;;1.63;;
52047;SDS011;46904;49.438;8.752;2023-07-29T17:27:29;2.67;;;2.08;;
52047;SDS011;46904;49.438;8.752;2023-07-29T17:33:19;2.25;;;1.65;;
52047;SDS011;46904;49.438;8.752;2023-07-29T17:35:45;3.28;;;1.70;;
52047;SDS011;46904;49.438;8.752;2023-07-29T17:38:11;3.38;;;1.90;;
52047;SDS011;46904;49.438;8.752;2023-07-29T17:40:42;1.70;;;1.60;;
52047;SDS011;46904;49.438;8.752;2023-07-29T17:43:24;2.35;;;1.80;;
52047;SDS011;46904;49.438;8.752;2023-07-29T17:48:38;2.53;;;1.65;;
52047;SDS011;46904;49.438;8.752;2023-07-29T17:54:07;1.65;;;1.55;;
52047;SDS011;46904;49.438;8.752;2023-07-29T17:56:38;2.33;;;1.80;;
52047;SDS011;46904;49.438;8.752;2023-07-29T17:59:14;2.60;;;1.38;;
52047;SDS011;46904;49.438;8.752;2023-07-29T18:02:00;1.60;;;1.50;;
52047;SDS011;46904;49.438;8.752;2023-07-29T18:04:33;1.45;;;1.35;;
52047;SDS011;46904;49.438;8.752;2023-07-29T18:07:13;1.38;;;1.27;;
52047;SDS011;46904;49.438;8.752;2023-07-29T18:09:45;1.65;;;1.55;;
52047;SDS011;46904;49.438;8.752;2023-07-29T18:15:14;2.42;;;1.58;;
52047;SDS011;46904;49.438;8.752;2023-07-29T18:17:45;2.13;;;1.67;;
52047;SDS011;46904;49.438;8.752;2023-07-29T18:26:03;1.60;;;1.50;;
52047;SDS011;46904;49.438;8.752;2023-07-29T18:28:31;1.80;;;1.67;;
52047;SDS011;46904;49.438;8.752;2023-07-29T18:30:59;2.17;;;1.98;;